createdAt,value
2023-05-05T00:01:14.623Z,1.77
2023-05-05T00:03:43.531Z,1.30
2023-05-05T00:06:13.263Z,1.40
2023-05-05T00:08:41.544Z,1.53
2023-05-05T00:11:09.778Z,1.40
2023-05-05T00:13:38.028Z,1.63
2023-05-05T00:16:06.656Z,1.40
2023-05-05T00:18:35.151Z,1.37
2023-05-05T00:21:04.428Z,1.40
2023-05-05T00:23:34.159Z,1.53
2023-05-05T00:26:02.341Z,1.80
2023-05-05T00:28:31.352Z,1.40
2023-05-05T00:30:59.726Z,2.00
2023-05-05T00:33:28.016Z,1.63
2023-05-05T00:35:56.157Z,1.50
2023-05-05T00:38:24.373Z,1.60
2023-05-05T00:40:53.974Z,1.60
2023-05-05T00:43:22.241Z,1.30
2023-05-05T00:45:58.827Z,1.30
2023-05-05T00:48:27.116Z,1.57
2023-05-05T00:50:55.289Z,1.23
2023-05-05T00:53:23.912Z,1.53
2023-05-05T00:55:53.894Z,1.50
2023-05-05T00:58:22.280Z,1.30
2023-05-05T01:00:50.636Z,1.43
2023-05-05T01:03:18.838Z,1.50
2023-05-05T01:06:00.070Z,1.20
2023-05-05T01:08:45.136Z,1.27
2023-05-05T01:11:22.639Z,1.53
2023-05-05T01:14:02.811Z,1.20
2023-05-05T01:16:34.536Z,1.40
2023-05-05T01:19:30.300Z,1.20
2023-05-05T01:22:03.906Z,1.50
2023-05-05T01:24:45.350Z,1.63
2023-05-05T01:27:41.448Z,1.20
2023-05-05T01:30:29.881Z,1.03
2023-05-05T01:33:05.210Z,0.97
2023-05-05T01:35:39.084Z,1.23
2023-05-05T01:38:12.177Z,1.40
2023-05-05T01:40:44.607Z,1.90
2023-05-05T01:43:14.955Z,1.40
2023-05-05T01:45:46.145Z,1.43
2023-05-05T01:48:18.380Z,1.80
2023-05-05T01:50:48.105Z,1.53
2023-05-05T01:53:19.168Z,1.40
2023-05-05T01:55:48.955Z,1.40
2023-05-05T01:58:18.550Z,1.10
2023-05-05T02:00:48.285Z,1.33
2023-05-05T02:03:20.061Z,1.27
2023-05-05T02:05:49.682Z,1.50
2023-05-05T02:08:18.395Z,1.30
2023-05-05T02:10:46.838Z,1.60
2023-05-05T02:13:16.705Z,1.33
2023-05-05T02:15:46.211Z,1.43
2023-05-05T02:18:16.009Z,1.60
2023-05-05T02:20:46.913Z,1.80
2023-05-05T02:23:15.157Z,1.93
2023-05-05T02:25:47.012Z,1.63
2023-05-05T02:28:31.994Z,1.20
2023-05-05T02:31:01.681Z,1.40
2023-05-05T02:33:34.023Z,1.20
2023-05-05T02:36:10.239Z,1.30
2023-05-05T02:38:43.004Z,1.40
2023-05-05T02:41:15.046Z,1.50
2023-05-05T02:43:44.648Z,1.50
2023-05-05T02:46:13.031Z,1.63
2023-05-05T02:48:41.242Z,1.40
2023-05-05T02:51:10.740Z,1.13
2023-05-05T02:53:39.641Z,1.70
2023-05-05T02:56:16.264Z,1.83
2023-05-05T02:59:05.451Z,1.47
2023-05-05T03:01:41.843Z,1.73
2023-05-05T03:04:16.853Z,1.23
2023-05-05T03:06:50.219Z,1.03
2023-05-05T03:09:27.061Z,1.03
2023-05-05T03:12:00.986Z,1.43
2023-05-05T03:14:33.424Z,1.33
2023-05-05T03:17:02.692Z,1.80
2023-05-05T03:19:32.943Z,1.83
2023-05-05T03:22:04.862Z,1.60
2023-05-05T03:24:33.006Z,1.37
2023-05-05T03:27:01.650Z,1.57
2023-05-05T03:29:30.375Z,1.67
2023-05-05T03:31:59.471Z,1.43
2023-05-05T03:34:27.869Z,1.30
2023-05-05T03:36:56.375Z,1.10
2023-05-05T03:39:26.030Z,1.43
2023-05-05T03:41:54.202Z,1.60
2023-05-05T03:44:22.433Z,2.63
2023-05-05T03:46:50.639Z,1.40
2023-05-05T03:49:18.783Z,1.33
2023-05-05T03:51:47.430Z,2.00
2023-05-05T03:54:15.733Z,2.27
2023-05-05T03:56:45.372Z,1.13
2023-05-05T03:59:13.639Z,1.43
2023-05-05T04:01:41.814Z,1.10
2023-05-05T04:04:10.868Z,1.50
2023-05-05T04:06:39.022Z,1.40
2023-05-05T04:09:07.320Z,1.37
2023-05-05T04:11:35.424Z,1.57
2023-05-05T04:14:04.991Z,1.50
2023-05-05T04:16:33.114Z,1.70
2023-05-05T04:19:01.348Z,1.60
2023-05-05T04:21:29.516Z,1.87
2023-05-05T04:23:58.564Z,1.90
2023-05-05T04:26:27.873Z,1.77
2023-05-05T04:28:56.914Z,1.47
2023-05-05T04:31:26.516Z,1.30
2023-05-05T04:33:54.694Z,1.33
2023-05-05T04:36:22.830Z,1.20
2023-05-05T04:38:51.333Z,1.60
2023-05-05T04:41:19.485Z,1.77
2023-05-05T04:43:47.684Z,1.60
2023-05-05T04:46:15.821Z,1.80
2023-05-05T04:48:45.728Z,2.33
2023-05-05T04:51:13.962Z,1.60
2023-05-05T04:53:42.137Z,1.53
2023-05-05T04:56:10.338Z,1.70
2023-05-05T04:58:38.498Z,1.70
2023-05-05T05:01:06.739Z,1.87
2023-05-05T05:03:35.097Z,1.70
2023-05-05T05:06:05.031Z,1.90
2023-05-05T05:08:33.213Z,2.00
2023-05-05T05:11:01.432Z,1.90
2023-05-05T05:13:29.701Z,2.33
2023-05-05T05:15:57.892Z,2.17
2023-05-05T05:18:26.168Z,2.30
2023-05-05T05:20:54.365Z,2.73
2023-05-05T05:23:24.024Z,2.27
2023-05-05T05:25:52.197Z,2.30
2023-05-05T05:28:20.441Z,2.63
2023-05-05T05:30:48.672Z,2.33
2023-05-05T05:33:16.871Z,2.57
2023-05-05T05:35:45.062Z,2.37
2023-05-05T05:38:13.126Z,2.90
2023-05-05T05:40:42.911Z,2.57
2023-05-05T05:43:11.113Z,2.20
2023-05-05T05:45:39.325Z,3.23
2023-05-05T05:48:07.802Z,2.13
2023-05-05T05:50:36.539Z,2.43
2023-05-05T05:53:04.742Z,2.37
2023-05-05T05:55:32.875Z,2.70
2023-05-05T05:58:02.496Z,2.30
2023-05-05T06:00:30.763Z,2.33
2023-05-05T06:02:59.109Z,2.17
2023-05-05T06:05:27.293Z,2.37
2023-05-05T06:07:55.453Z,2.60
2023-05-05T06:10:28.003Z,2.60
2023-05-05T06:12:56.740Z,1.80
2023-05-05T06:15:26.634Z,2.10
2023-05-05T06:17:54.928Z,1.77
2023-05-05T06:20:23.164Z,2.23
2023-05-05T06:22:51.323Z,2.63
2023-05-05T06:25:19.456Z,2.10
2023-05-05T06:27:47.700Z,2.50
2023-05-05T06:30:16.061Z,1.87
2023-05-05T06:32:45.724Z,2.43
2023-05-05T06:35:13.948Z,2.13
2023-05-05T06:37:42.123Z,2.00
2023-05-05T06:40:11.665Z,2.23
2023-05-05T06:42:39.909Z,2.80
2023-05-05T06:45:09.273Z,2.57
2023-05-05T06:47:37.764Z,2.23
2023-05-05T06:50:09.398Z,2.27
2023-05-05T06:52:38.017Z,2.47
2023-05-05T06:55:06.916Z,2.57
2023-05-05T06:57:35.168Z,2.67
2023-05-05T07:00:05.906Z,2.17
2023-05-05T07:02:34.406Z,2.37
2023-05-05T07:05:02.641Z,2.53
2023-05-05T07:07:32.711Z,2.63
2023-05-05T07:10:01.107Z,2.70
2023-05-05T07:12:31.390Z,2.92
2023-05-05T07:15:00.714Z,2.35
2023-05-05T07:17:31.493Z,2.65
2023-05-05T07:19:59.785Z,2.40
2023-05-05T07:22:27.977Z,2.60
2023-05-05T07:24:57.536Z,2.97
2023-05-05T07:27:26.079Z,2.50
2023-05-05T07:29:54.252Z,2.35
2023-05-05T07:32:22.593Z,2.50
2023-05-05T07:34:50.900Z,2.80
2023-05-05T07:37:19.097Z,2.30
2023-05-05T07:39:48.878Z,2.58
2023-05-05T07:42:18.536Z,2.30
2023-05-05T07:44:46.815Z,2.08
2023-05-05T07:47:14.996Z,2.20
2023-05-05T07:49:43.247Z,2.42
2023-05-05T07:52:11.558Z,2.83
2023-05-05T07:54:39.744Z,1.98
2023-05-05T07:57:07.884Z,2.30
2023-05-05T07:59:38.678Z,2.67
2023-05-05T08:02:06.985Z,2.30
2023-05-05T08:04:35.235Z,2.22
2023-05-05T08:07:03.543Z,2.45
2023-05-05T08:09:31.775Z,2.38
2023-05-05T08:11:59.905Z,2.10
2023-05-05T08:14:28.064Z,2.25
2023-05-05T08:16:57.903Z,2.33
2023-05-05T08:19:29.404Z,2.70
2023-05-05T08:21:58.922Z,2.38
2023-05-05T08:24:29.370Z,2.45
2023-05-05T08:26:57.900Z,2.20
2023-05-05T08:29:26.108Z,3.03
2023-05-05T08:31:54.592Z,2.13
2023-05-05T08:34:24.237Z,1.98
2023-05-05T08:36:52.552Z,2.00
2023-05-05T08:39:20.821Z,2.05
2023-05-05T08:41:49.183Z,1.95
2023-05-05T08:44:17.384Z,1.92
2023-05-05T08:46:45.832Z,2.05
2023-05-05T08:49:17.042Z,2.10
2023-05-05T08:51:47.980Z,2.10
2023-05-05T08:54:20.331Z,1.90
2023-05-05T08:56:52.335Z,2.55
2023-05-05T08:59:24.285Z,2.17
2023-05-05T09:01:54.555Z,2.42
2023-05-05T09:04:23.366Z,2.25
2023-05-05T09:06:53.046Z,1.90
2023-05-05T09:09:21.887Z,2.00
2023-05-05T09:11:52.917Z,2.30
2023-05-05T09:14:21.133Z,1.80
2023-05-05T09:16:49.337Z,1.77
2023-05-05T09:19:17.492Z,2.08
2023-05-05T09:21:49.910Z,2.05
2023-05-05T09:24:19.773Z,1.92
2023-05-05T09:26:50.014Z,2.20
2023-05-05T09:29:21.571Z,2.28
2023-05-05T09:32:05.849Z,2.03
2023-05-05T09:34:35.682Z,1.98
2023-05-05T09:37:03.928Z,1.77
2023-05-05T09:39:33.575Z,2.55
2023-05-05T09:42:03.517Z,2.03
2023-05-05T09:44:36.165Z,1.92
2023-05-05T09:47:09.497Z,1.75
2023-05-05T09:49:43.249Z,1.80
2023-05-05T09:52:16.057Z,1.80
2023-05-05T09:54:46.059Z,1.98
2023-05-05T09:57:26.940Z,1.85
2023-05-05T09:59:59.518Z,1.75
2023-05-05T10:02:35.846Z,2.40
2023-05-05T10:05:07.189Z,2.15
2023-05-05T10:07:36.206Z,1.77
2023-05-05T10:10:08.287Z,2.03
2023-05-05T10:12:37.878Z,2.30
2023-05-05T10:15:07.522Z,2.10
2023-05-05T10:17:38.484Z,2.10
2023-05-05T10:20:11.703Z,1.65
2023-05-05T10:22:42.883Z,1.50
2023-05-05T10:25:14.435Z,1.83
2023-05-05T10:27:46.168Z,1.67
2023-05-05T10:30:21.918Z,1.58
2023-05-05T10:33:04.379Z,2.00
2023-05-05T10:35:41.789Z,1.80
2023-05-05T10:38:10.462Z,1.65
2023-05-05T10:40:41.264Z,1.77
2023-05-05T10:43:09.560Z,1.83
2023-05-05T10:45:38.785Z,1.70
2023-05-05T10:48:11.801Z,1.88
2023-05-05T10:50:45.977Z,1.90
2023-05-05T10:53:20.323Z,1.73
2023-05-05T10:55:56.220Z,1.35
2023-05-05T10:58:43.668Z,1.80
2023-05-05T11:01:30.570Z,1.75
2023-05-05T11:04:18.320Z,1.52
2023-05-05T11:07:22.543Z,1.63
2023-05-05T11:10:01.263Z,1.58
2023-05-05T11:12:31.068Z,1.30
2023-05-05T11:15:38.051Z,1.52
2023-05-05T11:18:08.406Z,1.52
2023-05-05T11:21:07.463Z,1.50
2023-05-05T11:23:35.809Z,1.45
2023-05-05T11:26:04.329Z,1.75
2023-05-05T11:28:34.152Z,1.60
2023-05-05T11:31:19.447Z,1.75
2023-05-05T11:33:48.017Z,1.65
2023-05-05T11:36:17.054Z,2.08
2023-05-05T11:39:03.453Z,1.52
2023-05-05T11:41:54.322Z,1.67
2023-05-05T11:44:31.917Z,1.55
2023-05-05T11:47:31.227Z,1.60
2023-05-05T11:49:59.632Z,1.70
2023-05-05T11:52:31.437Z,1.92
2023-05-05T11:55:03.887Z,1.95
2023-05-05T11:57:32.491Z,1.80
2023-05-05T12:00:04.003Z,1.75
2023-05-05T12:02:32.703Z,1.70
2023-05-05T12:05:02.072Z,1.67
2023-05-05T12:07:31.713Z,1.90
2023-05-05T12:10:00.254Z,1.90
2023-05-05T12:12:40.176Z,1.63
2023-05-05T12:15:11.557Z,1.70
2023-05-05T12:17:42.881Z,2.40
2023-05-05T12:20:12.642Z,1.55
2023-05-05T12:22:41.605Z,1.65
2023-05-05T12:25:10.650Z,1.80
2023-05-05T12:27:39.046Z,1.73
2023-05-05T12:30:19.886Z,1.92
2023-05-05T12:32:48.222Z,1.60
2023-05-05T12:35:17.199Z,1.40
2023-05-05T12:37:45.710Z,1.88
2023-05-05T12:40:44.105Z,1.40
2023-05-05T12:43:23.756Z,1.80
2023-05-05T12:46:02.171Z,1.98
2023-05-05T12:48:30.868Z,1.80
2023-05-05T12:51:15.258Z,1.58
2023-05-05T12:53:43.836Z,1.75
2023-05-05T12:56:31.259Z,1.58
2023-05-05T12:58:59.758Z,1.70
2023-05-05T13:01:29.931Z,1.60
2023-05-05T13:04:09.730Z,2.40
2023-05-05T13:06:38.815Z,1.80
2023-05-05T13:09:07.719Z,1.58
2023-05-05T13:11:39.452Z,1.70
2023-05-05T13:14:09.284Z,1.70
2023-05-05T13:16:38.915Z,2.15
2023-05-05T13:19:07.088Z,1.50
2023-05-05T13:21:35.373Z,1.35
2023-05-05T13:26:34.927Z,2.20
2023-05-05T13:29:03.125Z,1.50
2023-05-05T13:31:31.560Z,1.77
2023-05-05T13:34:01.183Z,1.83
2023-05-05T13:36:29.381Z,1.75
2023-05-05T13:38:57.602Z,1.83
2023-05-05T13:41:25.981Z,2.20
2023-05-05T13:43:54.537Z,1.80
2023-05-05T13:46:22.707Z,1.55
2023-05-05T13:48:55.967Z,1.90
2023-05-05T13:51:26.102Z,1.80
2023-05-05T13:53:54.327Z,1.83
2023-05-05T13:56:26.215Z,2.10
2023-05-05T13:58:54.635Z,1.90
2023-05-05T14:01:22.963Z,1.90
2023-05-05T14:03:51.310Z,1.90
2023-05-05T14:06:19.602Z,1.63
2023-05-05T14:08:49.200Z,2.25
2023-05-05T14:11:18.295Z,2.20
2023-05-05T14:13:48.222Z,1.77
2023-05-05T14:16:18.065Z,1.83
2023-05-05T14:18:46.315Z,1.88
2023-05-05T14:21:14.483Z,1.83
2023-05-05T14:23:42.647Z,2.10
2023-05-05T14:26:12.306Z,1.92
2023-05-05T14:28:40.439Z,2.08
2023-05-05T14:31:08.622Z,2.85
2023-05-05T14:33:36.779Z,1.65
2023-05-05T14:36:05.257Z,1.85
2023-05-05T14:38:33.517Z,1.90
2023-05-05T14:41:01.699Z,2.20
2023-05-05T14:43:31.339Z,1.80
2023-05-05T14:46:00.579Z,1.67
2023-05-05T14:48:29.315Z,1.80
2023-05-05T14:50:57.567Z,2.00
2023-05-05T14:53:25.847Z,1.85
2023-05-05T14:55:54.070Z,1.83
2023-05-05T14:58:24.582Z,2.10
2023-05-05T15:00:54.702Z,1.85
2023-05-05T15:03:23.022Z,1.85
2023-05-05T15:05:51.310Z,1.77
2023-05-05T15:08:19.935Z,1.80
2023-05-05T15:10:48.190Z,2.00
2023-05-05T15:13:17.375Z,1.58
2023-05-05T15:15:45.727Z,2.28
2023-05-05T15:18:15.497Z,1.67
2023-05-05T15:20:43.780Z,1.80
2023-05-05T15:23:11.985Z,1.67
2023-05-05T15:25:40.375Z,2.13
2023-05-05T15:28:08.661Z,2.00
2023-05-05T15:30:37.015Z,1.90
2023-05-05T15:33:05.328Z,2.03
2023-05-05T15:35:36.271Z,1.90
2023-05-05T15:38:04.744Z,1.73
2023-05-05T15:40:33.098Z,2.03
2023-05-05T15:43:01.375Z,1.60
2023-05-05T15:45:29.601Z,2.08
2023-05-05T15:47:57.919Z,1.95
2023-05-05T15:50:26.210Z,1.67
2023-05-05T15:52:57.484Z,1.67
2023-05-05T15:55:25.903Z,2.10
2023-05-05T15:57:54.447Z,1.63
2023-05-05T16:00:23.225Z,2.28
2023-05-05T16:02:51.713Z,1.90
2023-05-05T16:05:22.790Z,2.33
2023-05-05T16:07:52.651Z,1.40
2023-05-05T16:10:22.758Z,1.90
2023-05-05T16:12:52.277Z,2.17
2023-05-05T16:15:20.822Z,1.80
2023-05-05T16:17:49.124Z,1.63
2023-05-05T16:20:17.505Z,2.20
2023-05-05T16:22:45.916Z,2.00
2023-05-05T16:25:17.720Z,2.08
2023-05-05T16:27:47.495Z,2.05
2023-05-05T16:30:16.663Z,2.30
2023-05-05T16:32:45.259Z,2.13
2023-05-05T16:35:13.508Z,1.80
2023-05-05T16:37:41.735Z,2.25
2023-05-05T16:40:11.210Z,1.80
2023-05-05T16:42:39.599Z,1.58
2023-05-05T16:45:10.790Z,2.63
2023-05-05T16:47:39.214Z,2.03
2023-05-05T16:50:08.658Z,2.30
2023-05-05T16:52:36.970Z,2.25
2023-05-05T16:55:05.722Z,1.85
2023-05-05T16:57:33.883Z,2.00
2023-05-05T17:00:02.060Z,2.00
2023-05-05T17:02:31.807Z,1.98
2023-05-05T17:05:00.265Z,1.70
2023-05-05T17:07:28.668Z,1.98
2023-05-05T17:09:56.918Z,1.98
2023-05-05T17:12:25.147Z,1.95
2023-05-05T17:14:53.403Z,1.95
2023-05-05T17:17:21.631Z,1.80
2023-05-05T17:19:51.561Z,2.08
2023-05-05T17:22:19.732Z,1.40
2023-05-05T17:24:48.992Z,1.70
2023-05-05T17:27:17.560Z,1.67
2023-05-05T17:29:45.923Z,1.85
2023-05-05T17:32:14.222Z,1.75
2023-05-05T17:34:42.532Z,1.77
2023-05-05T17:37:12.298Z,1.50
2023-05-05T17:39:40.655Z,2.15
2023-05-05T17:42:09.129Z,1.50
2023-05-05T17:44:37.295Z,1.42
2023-05-05T17:47:07.843Z,1.45
2023-05-05T17:49:36.111Z,1.35
2023-05-05T17:52:04.448Z,1.90
2023-05-05T17:54:34.174Z,1.67
2023-05-05T17:57:02.539Z,1.40
2023-05-05T17:59:32.618Z,1.80
2023-05-05T18:02:01.045Z,1.75
2023-05-05T18:04:57.403Z,1.88
2023-05-05T18:07:40.971Z,1.65
2023-05-05T18:11:01.051Z,1.80
2023-05-05T18:14:03.284Z,1.48
2023-05-05T18:17:28.320Z,1.75
2023-05-05T18:24:55.359Z,1.92
2023-05-05T18:27:55.933Z,2.05
2023-05-05T18:30:24.120Z,2.00
2023-05-05T18:32:52.328Z,2.00
2023-05-05T18:35:21.573Z,1.77
2023-05-05T18:37:49.956Z,1.65
2023-05-05T18:40:18.350Z,1.80
2023-05-05T18:42:46.593Z,2.05
2023-05-05T18:45:16.324Z,1.85
2023-05-05T18:47:44.570Z,1.50
2023-05-05T18:50:13.103Z,1.90
2023-05-05T18:52:41.333Z,2.05
2023-05-05T18:55:10.371Z,1.70
2023-05-05T18:57:38.763Z,1.67
2023-05-05T19:00:08.420Z,1.98
2023-05-05T19:02:38.130Z,1.77
2023-05-05T19:05:07.600Z,1.77
2023-05-05T19:07:36.864Z,1.85
2023-05-05T19:10:05.693Z,1.92
2023-05-05T19:12:33.965Z,2.80
2023-05-05T19:15:02.190Z,2.85
2023-05-05T19:17:30.511Z,4.43
2023-05-05T19:20:00.245Z,3.92
2023-05-05T19:22:28.874Z,4.95
2023-05-05T19:24:57.129Z,2.45
2023-05-05T19:27:25.410Z,2.35
2023-05-05T19:29:53.673Z,2.15
2023-05-05T19:32:22.740Z,2.60
2023-05-05T19:34:54.400Z,2.30
2023-05-05T19:37:24.151Z,1.95
2023-05-05T19:39:52.355Z,2.30
2023-05-05T19:42:20.885Z,2.13
2023-05-05T19:44:49.131Z,2.60
2023-05-05T19:47:18.082Z,2.17
2023-05-05T19:49:46.300Z,2.20
2023-05-05T19:52:14.491Z,2.83
2023-05-05T19:54:44.075Z,3.20
2023-05-05T19:57:12.719Z,3.70
2023-05-05T19:59:41.811Z,3.70
2023-05-05T20:02:11.626Z,2.88
2023-05-05T20:04:39.891Z,2.92
2023-05-05T20:07:08.028Z,2.97
2023-05-05T20:09:37.805Z,3.47
2023-05-05T20:12:08.399Z,3.45
2023-05-05T20:14:36.961Z,3.88
2023-05-05T20:17:05.346Z,3.70
2023-05-05T20:19:33.677Z,3.47
2023-05-05T20:22:01.937Z,4.03
2023-05-05T20:24:30.182Z,3.10
2023-05-05T20:26:58.592Z,3.33
2023-05-05T20:29:28.301Z,2.95
2023-05-05T20:31:56.550Z,3.13
2023-05-05T20:34:25.486Z,3.28
2023-05-05T20:36:54.297Z,3.15
2023-05-05T20:39:22.744Z,2.97
2023-05-05T20:41:51.075Z,3.50
2023-05-05T20:44:19.911Z,3.45
2023-05-05T20:46:50.543Z,3.58
2023-05-05T20:49:18.874Z,2.85
2023-05-05T20:51:47.196Z,2.90
2023-05-05T20:54:15.427Z,2.53
2023-05-05T20:56:43.676Z,3.10
2023-05-05T20:59:12.160Z,3.25
2023-05-05T21:01:41.616Z,3.25
2023-05-05T21:04:11.418Z,2.40
2023-05-05T21:06:39.737Z,2.80
2023-05-05T21:09:08.034Z,2.67
2023-05-05T21:11:36.339Z,2.83
2023-05-05T21:14:06.097Z,2.80
2023-05-05T21:16:34.350Z,2.70
2023-05-05T21:19:02.532Z,2.97
2023-05-05T21:21:32.112Z,2.63
2023-05-05T21:24:00.313Z,2.78
2023-05-05T21:26:28.645Z,2.63
2023-05-05T21:28:56.808Z,2.25
2023-05-05T21:31:25.141Z,2.20
2023-05-05T21:33:54.330Z,2.40
2023-05-05T21:36:22.611Z,2.65
2023-05-05T21:38:55.663Z,2.50
2023-05-05T21:41:24.648Z,2.50
2023-05-05T21:43:52.878Z,2.60
2023-05-05T21:46:21.191Z,2.28
2023-05-05T21:48:49.393Z,2.33
2023-05-05T21:51:17.670Z,2.33
2023-05-05T21:53:46.310Z,2.30
2023-05-05T21:56:15.945Z,2.28
2023-05-05T21:58:44.676Z,2.70
2023-05-05T22:01:13.497Z,2.25
2023-05-05T22:03:43.634Z,2.38
2023-05-05T22:06:12.486Z,2.50
2023-05-05T22:08:40.603Z,2.70
2023-05-05T22:11:08.821Z,2.45
2023-05-05T22:13:39.136Z,2.30
2023-05-05T22:16:07.940Z,2.35
2023-05-05T22:18:36.430Z,2.28
2023-05-05T22:21:05.340Z,2.50
2023-05-05T22:23:33.716Z,2.47
2023-05-05T22:26:02.045Z,2.42
2023-05-05T22:28:30.478Z,2.17
2023-05-05T22:31:00.288Z,2.42
2023-05-05T22:33:28.721Z,1.97
2023-05-05T22:35:57.040Z,2.30
2023-05-05T22:38:25.334Z,2.38
2023-05-05T22:40:53.610Z,2.08
2023-05-05T22:43:21.868Z,2.17
2023-05-05T22:45:50.132Z,2.25
2023-05-05T22:48:19.749Z,2.50
2023-05-05T22:50:48.011Z,1.90
2023-05-05T22:53:16.151Z,2.30
2023-05-05T22:55:44.533Z,2.37
2023-05-05T22:58:12.734Z,2.37
2023-05-05T23:00:41.103Z,2.40
2023-05-05T23:03:09.920Z,2.25
2023-05-05T23:05:39.564Z,2.53
2023-05-05T23:08:07.955Z,2.40
2023-05-05T23:10:36.173Z,1.87
2023-05-05T23:13:04.519Z,2.50
2023-05-05T23:15:32.872Z,2.50
2023-05-05T23:18:01.153Z,2.37
2023-05-05T23:20:29.701Z,2.65
2023-05-05T23:22:59.298Z,2.13
2023-05-05T23:25:27.594Z,2.73
2023-05-05T23:27:56.139Z,2.50
2023-05-05T23:30:24.303Z,2.93
2023-05-05T23:32:52.718Z,2.83
2023-05-05T23:35:21.578Z,2.53
2023-05-05T23:37:50.100Z,2.50
2023-05-05T23:40:19.848Z,2.97
2023-05-05T23:42:48.137Z,2.53
2023-05-05T23:45:19.190Z,2.30
2023-05-05T23:47:47.826Z,2.83
2023-05-05T23:50:16.050Z,2.73
2023-05-05T23:52:44.489Z,2.90
2023-05-05T23:55:12.773Z,2.70
2023-05-05T23:57:42.364Z,3.00
